createdAt,value
2022-10-13T00:01:20.070Z,13.30
2022-10-13T00:03:48.411Z,13.30
2022-10-13T00:06:31.887Z,13.37
2022-10-13T00:09:00.095Z,13.33
2022-10-13T00:11:29.882Z,13.28
2022-10-13T00:14:01.556Z,13.37
2022-10-13T00:16:33.312Z,13.10
2022-10-13T00:19:01.030Z,13.04
2022-10-13T00:21:29.553Z,13.13
2022-10-13T00:23:57.511Z,12.98
2022-10-13T00:26:27.184Z,12.87
2022-10-13T00:28:56.372Z,12.80
2022-10-13T00:31:28.965Z,12.62
2022-10-13T00:33:57.863Z,12.63
2022-10-13T00:36:25.820Z,12.54
2022-10-13T00:38:54.312Z,12.67
2022-10-13T00:41:22.216Z,12.53
2022-10-13T00:43:52.337Z,12.53
2022-10-13T00:46:21.075Z,12.46
2022-10-13T00:48:57.079Z,12.55
2022-10-13T00:51:29.968Z,12.59
2022-10-13T00:54:00.359Z,12.67
2022-10-13T00:56:29.038Z,12.65
2022-10-13T00:58:57.877Z,12.79
2022-10-13T01:01:25.490Z,12.80
2022-10-13T01:03:53.146Z,12.76
2022-10-13T01:06:23.614Z,12.46
2022-10-13T01:08:51.931Z,12.48
2022-10-13T01:11:39.841Z,12.48
2022-10-13T01:14:46.988Z,12.27
2022-10-13T01:17:55.397Z,12.22
2022-10-13T01:20:47.398Z,12.22
2022-10-13T01:24:18.755Z,12.23
2022-10-13T01:27:14.450Z,12.15
2022-10-13T01:30:06.450Z,12.18
2022-10-13T01:33:02.103Z,12.03
2022-10-13T01:36:01.177Z,12.11
2022-10-13T01:38:44.329Z,11.97
2022-10-13T01:41:26.557Z,11.93
2022-10-13T01:44:17.423Z,11.96
2022-10-13T01:46:55.056Z,12.10
2022-10-13T01:49:31.131Z,12.15
2022-10-13T01:52:07.782Z,12.36
2022-10-13T01:54:35.402Z,12.33
2022-10-13T01:57:03.365Z,12.21
2022-10-13T01:59:36.219Z,12.32
2022-10-13T02:02:20.912Z,12.42
2022-10-13T02:05:26.093Z,12.44
2022-10-13T02:08:16.317Z,12.44
2022-10-13T02:10:56.099Z,12.51
2022-10-13T02:13:28.595Z,12.27
2022-10-13T02:16:01.555Z,12.08
2022-10-13T02:18:34.839Z,12.06
2022-10-13T02:21:04.480Z,12.12
2022-10-13T02:23:32.625Z,12.31
2022-10-13T02:26:00.816Z,12.29
2022-10-13T02:28:29.650Z,12.23
2022-10-13T02:30:57.747Z,12.24
2022-10-13T02:33:25.375Z,12.26
2022-10-13T02:35:52.892Z,12.38
2022-10-13T02:38:20.618Z,12.42
2022-10-13T02:40:48.120Z,12.36
2022-10-13T02:43:16.659Z,12.23
2022-10-13T02:45:44.234Z,11.99
2022-10-13T02:48:11.767Z,11.82
2022-10-13T02:50:39.347Z,12.04
2022-10-13T02:53:06.880Z,12.16
2022-10-13T02:55:34.365Z,12.07
2022-10-13T02:58:01.963Z,11.94
2022-10-13T03:00:29.593Z,11.64
2022-10-13T03:02:57.334Z,11.46
2022-10-13T03:05:24.857Z,11.21
2022-10-13T03:07:52.399Z,11.24
2022-10-13T03:10:20.250Z,11.44
2022-10-13T03:12:51.198Z,11.66
2022-10-13T03:15:18.811Z,11.38
2022-10-13T03:17:49.307Z,11.28
2022-10-13T03:20:17.399Z,11.54
2022-10-13T03:22:49.551Z,11.37
2022-10-13T03:25:18.275Z,10.92
2022-10-13T03:27:45.897Z,10.71
2022-10-13T03:30:14.329Z,10.54
2022-10-13T03:32:41.926Z,10.99
2022-10-13T03:35:09.757Z,10.76
2022-10-13T03:37:37.314Z,10.53
2022-10-13T03:40:05.540Z,10.62
2022-10-13T03:42:35.282Z,10.45
2022-10-13T03:45:03.485Z,10.42
2022-10-13T03:47:38.361Z,10.50
2022-10-13T03:50:07.382Z,10.37
2022-10-13T03:52:34.958Z,10.57
2022-10-13T03:55:02.897Z,10.47
2022-10-13T03:57:30.795Z,10.56
2022-10-13T03:59:58.980Z,10.69
2022-10-13T04:02:27.604Z,10.78
2022-10-13T04:04:55.307Z,10.71
2022-10-13T04:07:23.228Z,10.73
2022-10-13T04:09:50.791Z,10.82
2022-10-13T04:12:20.945Z,10.67
2022-10-13T04:14:48.933Z,10.48
2022-10-13T04:17:16.446Z,10.59
2022-10-13T04:19:44.140Z,10.53
2022-10-13T04:22:11.644Z,10.49
2022-10-13T04:24:39.317Z,10.41
2022-10-13T04:27:06.875Z,10.32
2022-10-13T04:29:34.413Z,10.39
2022-10-13T04:32:01.969Z,10.49
2022-10-13T04:34:29.693Z,10.43
2022-10-13T04:36:57.677Z,10.41
2022-10-13T04:39:25.243Z,10.50
2022-10-13T04:41:52.799Z,10.72
2022-10-13T04:44:20.426Z,10.73
2022-10-13T04:46:47.909Z,10.67
2022-10-13T04:49:16.209Z,10.82
2022-10-13T04:51:43.714Z,11.05
2022-10-13T04:54:11.360Z,10.93
2022-10-13T04:56:38.962Z,10.86
2022-10-13T04:59:06.597Z,10.88
2022-10-13T05:01:36.528Z,10.92
2022-10-13T05:04:07.536Z,10.90
2022-10-13T05:06:58.955Z,10.96
2022-10-13T05:09:28.056Z,11.02
2022-10-13T05:11:55.616Z,11.17
2022-10-13T05:14:23.902Z,11.17
2022-10-13T05:16:51.453Z,11.15
2022-10-13T05:19:19.102Z,11.01
2022-10-13T05:21:46.581Z,11.15
2022-10-13T05:24:16.126Z,11.17
2022-10-13T05:26:44.187Z,11.24
2022-10-13T05:29:11.813Z,11.40
2022-10-13T05:31:41.041Z,11.43
2022-10-13T05:34:08.666Z,11.23
2022-10-13T05:36:36.193Z,11.33
2022-10-13T05:39:10.235Z,11.37
2022-10-13T05:41:39.343Z,11.59
2022-10-13T05:44:14.039Z,11.79
2022-10-13T05:46:54.136Z,11.81
2022-10-13T05:49:21.715Z,11.89
2022-10-13T05:51:56.762Z,11.98
2022-10-13T05:54:51.050Z,12.27
2022-10-13T05:57:41.218Z,12.23
2022-10-13T06:00:12.066Z,12.11
2022-10-13T06:03:11.561Z,12.14
2022-10-13T06:05:45.241Z,12.05
2022-10-13T06:08:12.907Z,12.05
2022-10-13T06:10:42.191Z,12.11
2022-10-13T06:13:10.828Z,12.15
2022-10-13T06:15:38.331Z,12.11
2022-10-13T06:18:10.415Z,12.32
2022-10-13T06:20:38.086Z,12.55
2022-10-13T06:23:05.750Z,13.08
2022-10-13T06:25:33.545Z,13.04
2022-10-13T06:28:01.189Z,13.21
2022-10-13T06:30:28.931Z,13.33
2022-10-13T06:32:56.735Z,13.21
2022-10-13T06:35:24.424Z,13.07
2022-10-13T06:37:53.375Z,13.13
2022-10-13T06:40:20.825Z,13.21
2022-10-13T06:42:51.887Z,13.38
2022-10-13T06:45:23.113Z,13.61
2022-10-13T06:47:52.616Z,13.67
2022-10-13T06:50:20.500Z,13.78
2022-10-13T06:52:48.261Z,13.89
2022-10-13T06:55:16.652Z,14.07
2022-10-13T06:57:44.232Z,14.31
2022-10-13T07:00:12.456Z,14.31
2022-10-13T07:02:40.054Z,14.44
2022-10-13T07:05:08.036Z,15.00
2022-10-13T07:07:35.661Z,15.04
2022-10-13T07:10:03.308Z,15.05
2022-10-13T07:12:30.858Z,14.84
2022-10-13T07:14:59.960Z,15.16
2022-10-13T07:17:27.879Z,14.93
2022-10-13T07:19:59.104Z,14.89
2022-10-13T07:22:28.928Z,15.04
2022-10-13T07:24:56.458Z,14.98
2022-10-13T07:27:25.158Z,15.38
2022-10-13T07:29:54.193Z,16.36
2022-10-13T07:32:21.909Z,16.24
2022-10-13T07:34:53.965Z,16.07
2022-10-13T07:37:22.067Z,16.58
2022-10-13T07:39:50.084Z,16.33
2022-10-13T07:42:17.839Z,16.29
2022-10-13T07:44:45.491Z,16.58
2022-10-13T07:47:13.073Z,17.02
2022-10-13T07:49:40.889Z,17.05
2022-10-13T07:52:08.461Z,17.02
2022-10-13T07:54:36.074Z,16.99
2022-10-13T07:57:06.494Z,17.06
2022-10-13T07:59:34.246Z,17.20
2022-10-13T08:02:02.045Z,17.01
2022-10-13T08:04:36.447Z,17.35
2022-10-13T08:07:07.748Z,17.87
2022-10-13T08:09:35.660Z,17.94
2022-10-13T08:12:03.715Z,17.63
2022-10-13T08:14:32.417Z,18.01
2022-10-13T08:17:01.399Z,18.24
2022-10-13T08:19:29.275Z,18.97
2022-10-13T08:22:00.324Z,18.92
2022-10-13T08:24:30.944Z,19.22
2022-10-13T08:27:00.602Z,19.38
2022-10-13T08:29:28.519Z,19.77
2022-10-13T08:31:58.624Z,19.82
2022-10-13T08:34:27.861Z,19.91
2022-10-13T08:36:58.375Z,20.34
2022-10-13T08:39:26.850Z,20.56
2022-10-13T08:41:58.851Z,19.83
2022-10-13T08:47:44.626Z,20.47
2022-10-13T08:50:22.666Z,20.13
2022-10-13T08:52:58.514Z,20.16
2022-10-13T08:55:43.785Z,20.73
2022-10-13T08:58:33.970Z,20.96
2022-10-13T09:01:18.386Z,21.39
2022-10-13T09:03:50.935Z,21.16
2022-10-13T09:06:46.327Z,20.59
2022-10-13T09:09:17.194Z,20.79
2022-10-13T09:11:50.533Z,21.01
2022-10-13T09:14:31.602Z,20.95
2022-10-13T09:17:16.610Z,21.11
2022-10-13T09:19:46.289Z,21.76
2022-10-13T09:22:24.163Z,21.85
2022-10-13T09:25:18.276Z,21.78
2022-10-13T09:27:59.213Z,21.94
2022-10-13T09:30:32.582Z,22.13
2022-10-13T09:33:13.393Z,22.05
2022-10-13T09:35:47.573Z,21.86
2022-10-13T09:38:20.374Z,22.01
2022-10-13T09:41:04.753Z,22.05
2022-10-13T09:43:46.922Z,22.31
2022-10-13T09:46:28.234Z,22.69
2022-10-13T09:49:07.089Z,23.11
2022-10-13T09:51:45.775Z,23.09
2022-10-13T09:54:41.472Z,23.41
2022-10-13T09:57:24.744Z,23.30
2022-10-13T10:00:16.604Z,23.21
2022-10-13T10:03:24.695Z,23.33
2022-10-13T10:09:04.648Z,23.89
2022-10-13T10:11:42.569Z,24.04
2022-10-13T10:14:40.164Z,23.78
2022-10-13T10:17:29.832Z,24.17
2022-10-13T10:20:00.704Z,24.36
2022-10-13T10:22:52.864Z,24.30
2022-10-13T10:25:37.373Z,24.51
2022-10-13T10:28:29.177Z,24.53
2022-10-13T10:31:34.629Z,24.57
2022-10-13T10:34:35.564Z,24.57
2022-10-13T10:37:35.241Z,24.62
2022-10-13T10:41:09.736Z,24.88
2022-10-13T10:43:55.791Z,24.78
2022-10-13T10:46:36.361Z,24.71
2022-10-13T10:49:24.369Z,25.23
2022-10-13T10:51:52.145Z,24.85
2022-10-13T10:54:37.514Z,24.82
2022-10-13T10:57:35.172Z,24.85
2022-10-13T11:00:20.979Z,24.93
2022-10-13T11:02:57.407Z,24.75
2022-10-13T11:05:25.287Z,24.52
2022-10-13T11:07:52.705Z,24.63
2022-10-13T11:10:23.066Z,24.99
2022-10-13T11:12:53.347Z,25.15
2022-10-13T11:15:45.254Z,25.46
2022-10-13T11:19:08.169Z,25.71
2022-10-13T11:21:53.846Z,25.96
2022-10-13T11:24:48.070Z,26.16
2022-10-13T11:27:35.029Z,26.58
2022-10-13T11:30:03.732Z,26.90
2022-10-13T11:32:33.165Z,26.86
2022-10-13T11:35:11.215Z,26.97
2022-10-13T11:38:23.024Z,27.14
2022-10-13T11:41:16.991Z,27.17
2022-10-13T11:43:55.862Z,26.98
2022-10-13T11:47:28.722Z,27.18
2022-10-13T11:50:17.786Z,27.16
2022-10-13T11:53:09.730Z,27.17
2022-10-13T11:55:54.178Z,27.49
2022-10-13T11:58:32.793Z,27.31
2022-10-13T12:01:07.476Z,27.13
2022-10-13T12:03:43.545Z,27.29
2022-10-13T12:06:37.125Z,27.54
2022-10-13T12:09:18.424Z,27.86
2022-10-13T12:11:46.336Z,27.94
2022-10-13T12:14:32.529Z,28.37
2022-10-13T12:17:36.030Z,28.60
2022-10-13T12:20:23.645Z,28.47
2022-10-13T12:22:53.778Z,28.82
2022-10-13T12:25:27.950Z,29.44
2022-10-13T12:28:01.228Z,28.99
2022-10-13T12:30:38.075Z,28.85
2022-10-13T12:33:31.839Z,29.37
2022-10-13T12:36:19.965Z,29.55
2022-10-13T12:38:54.648Z,29.72
2022-10-13T12:41:29.016Z,29.26
2022-10-13T12:44:01.130Z,29.28
2022-10-13T12:46:56.180Z,29.59
2022-10-13T12:49:30.655Z,29.53
2022-10-13T12:52:06.357Z,29.78
2022-10-13T12:54:43.225Z,29.92
2022-10-13T12:57:27.142Z,29.71
2022-10-13T12:59:54.921Z,30.09
2022-10-13T13:02:48.842Z,30.60
2022-10-13T13:05:50.961Z,30.68
2022-10-13T13:08:30.365Z,30.59
2022-10-13T13:11:24.796Z,30.60
2022-10-13T13:14:22.927Z,30.88
2022-10-13T13:17:56.639Z,31.12
2022-10-13T13:20:27.697Z,31.23
2022-10-13T13:22:55.881Z,30.69
2022-10-13T13:25:27.822Z,30.21
2022-10-13T13:27:55.458Z,30.17
2022-10-13T13:30:24.802Z,30.56
2022-10-13T13:32:52.545Z,30.84
2022-10-13T13:35:20.101Z,31.37
2022-10-13T13:37:51.085Z,31.55
2022-10-13T13:40:27.707Z,31.37
2022-10-13T13:42:55.986Z,30.97
2022-10-13T13:45:26.992Z,30.69
2022-10-13T13:47:59.481Z,30.56
2022-10-13T13:50:34.809Z,30.09
2022-10-13T13:53:02.932Z,30.06
2022-10-13T13:55:30.888Z,30.16
2022-10-13T13:57:59.205Z,30.13
2022-10-13T14:00:27.564Z,30.70
2022-10-13T14:02:58.726Z,30.53
2022-10-13T14:05:26.788Z,30.39
2022-10-13T14:07:59.039Z,30.62
2022-10-13T14:10:27.668Z,30.43
2022-10-13T14:12:55.581Z,30.22
2022-10-13T14:15:27.186Z,30.36
2022-10-13T14:17:57.168Z,30.37
2022-10-13T14:20:24.747Z,30.75
2022-10-13T14:22:52.303Z,31.13
2022-10-13T14:25:20.040Z,30.64
2022-10-13T14:28:07.538Z,30.17
2022-10-13T14:30:35.526Z,30.03
2022-10-13T14:33:05.002Z,30.07
2022-10-13T14:35:32.923Z,30.09
2022-10-13T14:38:01.601Z,29.75
2022-10-13T14:40:29.067Z,29.29
2022-10-13T14:42:56.551Z,29.38
2022-10-13T14:45:27.052Z,29.22
2022-10-13T14:47:54.596Z,28.95
2022-10-13T14:50:22.150Z,28.38
2022-10-13T14:52:56.056Z,28.07
2022-10-13T14:55:23.978Z,27.39
2022-10-13T14:57:51.530Z,26.63
2022-10-13T15:00:20.158Z,26.21
2022-10-13T15:02:47.655Z,25.68
2022-10-13T15:05:16.689Z,25.35
2022-10-13T15:07:45.287Z,25.01
2022-10-13T15:10:12.921Z,24.72
2022-10-13T15:13:03.748Z,24.49
2022-10-13T15:15:35.952Z,24.25
2022-10-13T15:18:05.751Z,24.20
2022-10-13T15:20:35.261Z,23.83
2022-10-13T15:23:04.579Z,23.46
2022-10-13T15:25:32.045Z,23.17
2022-10-13T15:27:59.634Z,22.93
2022-10-13T15:30:28.192Z,22.78
2022-10-13T15:32:56.690Z,22.58
2022-10-13T15:35:24.252Z,22.42
2022-10-13T15:37:51.748Z,22.27
2022-10-13T15:40:21.481Z,22.04
2022-10-13T15:42:50.492Z,21.80
2022-10-13T15:45:18.651Z,21.58
2022-10-13T15:47:49.990Z,21.51
2022-10-13T15:50:18.082Z,21.46
2022-10-13T15:52:45.858Z,21.31
2022-10-13T15:55:14.821Z,21.11
2022-10-13T15:57:43.861Z,20.92
2022-10-13T16:00:15.929Z,20.82
2022-10-13T16:02:44.713Z,20.84
2022-10-13T16:05:13.813Z,20.76
2022-10-13T16:07:43.224Z,20.66
2022-10-13T16:10:13.323Z,20.55
2022-10-13T16:12:46.958Z,20.40
2022-10-13T16:15:18.801Z,20.40
2022-10-13T16:17:49.269Z,20.34
2022-10-13T16:20:17.986Z,20.30
2022-10-13T16:22:46.490Z,20.15
2022-10-13T16:25:14.123Z,20.11
2022-10-13T16:27:44.340Z,19.96
2022-10-13T16:30:15.262Z,19.69
2022-10-13T16:32:43.095Z,19.58
2022-10-13T16:35:12.392Z,19.58
2022-10-13T16:37:40.638Z,19.47
2022-10-13T16:40:08.929Z,19.34
2022-10-13T16:42:37.313Z,19.31
2022-10-13T16:45:05.634Z,19.26
2022-10-13T16:47:35.477Z,19.13
2022-10-13T16:50:09.354Z,19.07
2022-10-13T16:52:39.064Z,19.14
2022-10-13T16:55:09.923Z,19.00
2022-10-13T16:57:38.492Z,19.02
2022-10-13T17:00:08.158Z,18.92
2022-10-13T17:02:36.646Z,18.84
2022-10-13T17:05:06.900Z,18.68
2022-10-13T17:07:36.807Z,18.65
2022-10-13T17:10:26.099Z,18.60
2022-10-13T17:12:54.748Z,18.54
2022-10-13T17:15:22.230Z,18.41
2022-10-13T17:17:53.785Z,18.30
2022-10-13T17:20:25.074Z,18.25
2022-10-13T17:22:57.248Z,18.25
2022-10-13T17:25:27.926Z,18.22
2022-10-13T17:27:55.455Z,18.21
2022-10-13T17:30:23.624Z,18.18
2022-10-13T17:32:52.359Z,18.11
2022-10-13T17:35:27.603Z,18.09
2022-10-13T17:37:57.457Z,18.16
2022-10-13T17:40:28.395Z,18.14
2022-10-13T17:43:00.368Z,18.09
2022-10-13T17:45:31.981Z,18.02
2022-10-13T17:48:00.804Z,18.01
2022-10-13T17:50:41.132Z,17.90
2022-10-13T17:53:11.675Z,17.99
2022-10-13T17:55:42.710Z,17.99
2022-10-13T17:58:31.487Z,17.96
2022-10-13T18:01:12.919Z,17.84
2022-10-13T18:03:51.653Z,17.74
2022-10-13T18:06:22.780Z,17.68
2022-10-13T18:08:56.613Z,17.70
2022-10-13T18:11:26.598Z,17.60
2022-10-13T18:13:56.027Z,17.60
2022-10-13T18:16:24.841Z,17.45
2022-10-13T18:19:02.066Z,17.40
2022-10-13T18:21:31.571Z,17.32
2022-10-13T18:24:04.316Z,17.36
2022-10-13T18:26:35.855Z,17.40
2022-10-13T18:29:08.397Z,17.32
2022-10-13T18:31:40.397Z,17.26
2022-10-13T18:34:16.157Z,17.29
2022-10-13T18:36:50.738Z,17.24
2022-10-13T18:39:27.369Z,17.30
2022-10-13T18:41:57.669Z,17.20
2022-10-13T18:44:35.222Z,17.10
2022-10-13T18:47:03.885Z,17.01
2022-10-13T18:49:31.581Z,16.94
2022-10-13T18:52:00.914Z,16.92
2022-10-13T18:54:30.024Z,16.96
2022-10-13T18:56:59.054Z,16.83
2022-10-13T18:59:28.045Z,16.68
2022-10-13T19:01:56.820Z,16.42
2022-10-13T19:04:26.731Z,16.35
2022-10-13T19:06:55.473Z,16.15
2022-10-13T19:09:24.889Z,16.09
2022-10-13T19:12:12.339Z,16.08
2022-10-13T19:14:39.888Z,16.07
2022-10-13T19:17:10.649Z,16.08
2022-10-13T19:19:42.015Z,16.04
2022-10-13T19:22:10.386Z,15.98
2022-10-13T19:24:37.919Z,16.02
2022-10-13T19:27:25.421Z,16.02
2022-10-13T19:29:53.752Z,15.90
2022-10-13T19:32:23.332Z,15.91
2022-10-13T19:34:50.997Z,15.92
2022-10-13T19:37:18.813Z,15.90
2022-10-13T19:39:47.950Z,15.81
2022-10-13T19:42:16.628Z,15.87
2022-10-13T19:44:46.795Z,15.85
2022-10-13T19:47:15.833Z,15.84
2022-10-13T19:49:43.627Z,15.80
2022-10-13T19:52:11.218Z,15.70
2022-10-13T19:54:40.685Z,15.79
2022-10-13T19:57:08.838Z,15.76
2022-10-13T19:59:38.039Z,15.79
2022-10-13T20:02:05.754Z,15.55
2022-10-13T20:04:35.196Z,15.58
2022-10-13T20:07:05.243Z,15.56
2022-10-13T20:09:33.646Z,15.55
2022-10-13T20:12:01.237Z,15.48
2022-10-13T20:14:30.339Z,15.46
2022-10-13T20:16:58.865Z,15.45
2022-10-13T20:19:27.990Z,15.53
2022-10-13T20:21:59.937Z,15.61
2022-10-13T20:24:27.731Z,15.58
2022-10-13T20:26:58.181Z,15.70
2022-10-13T20:29:26.640Z,15.62
2022-10-13T20:31:54.236Z,15.65
2022-10-13T20:34:25.535Z,15.67
2022-10-13T20:36:57.460Z,15.66
2022-10-13T20:39:28.116Z,15.58
2022-10-13T20:41:56.772Z,15.56
2022-10-13T20:44:24.927Z,15.67
2022-10-13T20:46:52.456Z,15.68
2022-10-13T20:49:42.780Z,15.69
2022-10-13T20:52:13.373Z,15.71
2022-10-13T20:54:40.885Z,15.66
2022-10-13T20:57:08.451Z,15.71
2022-10-13T20:59:36.034Z,15.81
2022-10-13T21:02:03.681Z,15.78
2022-10-13T21:04:31.226Z,15.92
2022-10-13T21:06:58.846Z,15.95
2022-10-13T21:09:26.919Z,16.01
2022-10-13T21:11:55.060Z,15.90
2022-10-13T21:14:27.666Z,15.89
2022-10-13T21:16:55.327Z,15.93
2022-10-13T21:19:23.387Z,15.72
2022-10-13T21:21:50.968Z,15.75
2022-10-13T21:24:18.615Z,15.79
2022-10-13T21:26:47.506Z,15.54
2022-10-13T21:29:15.338Z,15.56
2022-10-13T21:31:42.870Z,15.57
2022-10-13T21:34:12.127Z,15.47
2022-10-13T21:36:44.134Z,15.30
2022-10-13T21:39:13.781Z,15.42
2022-10-13T21:41:43.025Z,15.40
2022-10-13T21:44:14.903Z,15.37
2022-10-13T21:46:42.568Z,15.41
2022-10-13T21:49:10.652Z,15.39
2022-10-13T21:51:44.280Z,15.39
2022-10-13T21:54:16.385Z,15.22
2022-10-13T21:56:44.155Z,15.20
2022-10-13T21:59:13.661Z,15.37
2022-10-13T22:01:42.394Z,15.48
2022-10-13T22:04:14.545Z,15.45
2022-10-13T22:06:42.217Z,15.53
2022-10-13T22:09:10.014Z,15.57
2022-10-13T22:11:39.964Z,15.54
2022-10-13T22:14:13.787Z,15.40
2022-10-13T22:16:48.065Z,15.45
2022-10-13T22:19:18.043Z,15.34
2022-10-13T22:21:49.809Z,15.33
2022-10-13T22:24:22.341Z,15.30
2022-10-13T22:26:51.208Z,15.24
2022-10-13T22:29:25.166Z,15.14
2022-10-13T22:31:57.613Z,15.07
2022-10-13T22:34:25.536Z,15.05
2022-10-13T22:36:54.739Z,14.98
2022-10-13T22:39:23.763Z,14.95
2022-10-13T22:41:53.924Z,14.96
2022-10-13T22:44:21.507Z,14.92
2022-10-13T22:46:49.207Z,14.90
2022-10-13T22:49:17.020Z,14.72
2022-10-13T22:51:44.620Z,14.68
2022-10-13T22:54:12.525Z,14.79
2022-10-13T22:56:42.018Z,14.78
2022-10-13T22:59:11.347Z,14.88
2022-10-13T23:01:42.502Z,14.84
2022-10-13T23:04:10.491Z,14.71
2022-10-13T23:06:38.132Z,14.84
2022-10-13T23:09:10.924Z,14.94
2022-10-13T23:11:41.791Z,14.86
2022-10-13T23:14:12.833Z,15.00
2022-10-13T23:16:40.426Z,14.89
2022-10-13T23:19:08.018Z,14.89
2022-10-13T23:21:35.693Z,14.96
2022-10-13T23:24:06.391Z,14.95
2022-10-13T23:26:35.613Z,15.00
2022-10-13T23:29:03.242Z,14.94
2022-10-13T23:31:31.384Z,14.94
2022-10-13T23:33:59.309Z,14.93
2022-10-13T23:36:31.031Z,14.91
2022-10-13T23:39:07.385Z,14.92
2022-10-13T23:41:35.391Z,14.98
2022-10-13T23:44:03.221Z,15.01
2022-10-13T23:46:31.081Z,14.93
2022-10-13T23:48:58.633Z,14.92
2022-10-13T23:51:27.347Z,14.94
2022-10-13T23:53:55.437Z,14.96
2022-10-13T23:56:23.754Z,14.98
2022-10-13T23:58:51.457Z,15.06
